Aérodrome :
LOGIN :

S'inscrire | Disclaimer

   EN    FR    IT 

 










Légende :    VFR   VFR Marginal   IFR   IFR Intensif   IFR Très Intensif
Visi : 
Plafond : 
>= 8 km
>= 3000ft
5 à 8 km
1000 à 3000 ft
1500m à 5 km
500 à 1000 ft
800 à 1500m
200 à 500 ft
< 800m
< 200 ft
Symboles :   Orages  Brouillard  Fortes neiges  Fortes précipitations  Vent > 20 kt
SIGMETs :   Divers  Orages  Givrage  Turbulence  Onde Orograph.  Cendres Volcan.






- Altitude de l'aérodrome : 309 ft
- Code IATA : FNI


LFTW - Nîmes Garons

DERNIER METAR :
  • 101100Z AUTO 11007KT 080V140 9999 BKN030 OVC036 13/04 Q1018 NOSIG

METARs EXPIRÉS :
  • 101030Z AUTO 14009KT 100V170 9999 OVC028 13/04 Q1018 NOSIG
  • 101000Z AUTO 12007KT 080V160 9999 BKN029 OVC036 13/04 Q1018 NOSIG
  • 100930Z AUTO 12008KT 090V160 9999 BKN030 OVC038 13/03 Q1019 NOSIG
  • 100900Z AUTO 12008KT 9999 OVC034 13/03 Q1018 NOSIG
  • 100830Z AUTO 11008KT 9999 OVC034 12/03 Q1018 NOSIG

TAF TAF LFTW
Valide du 10 à 09h jusqu'au 11 à 09h UTC


100800Z 1009/1109 11012KT 9999 BKN030 OVC040
BECMG 1013/1015 RA OVC020
BECMG 1021/1024 01005KT NSW



MET'MAP, la Météo Aéronautique d'un coup d'oeil ! - Copyright ORBIFLY Décembre 2007 - Disclaimer

ORBIFLY MET'MAP TEAM :

Programmation & Développement : Alexandra Zaïnal
Sur une idée originale de : Baudouin d'Aumeries
Assistance à la programmation : Marc-Olivier Méhu
Soutien technique & logistique : Manuel Goepfert

Contact : metmap@orbifly.com




SOURCES & CREDITS :

   NOAA